createdAt,value
2019-03-22T00:02:49.220Z,12.67
2019-03-22T00:05:57.806Z,6.07
2019-03-22T00:09:06.903Z,8.50
2019-03-22T00:12:15.327Z,11.03
2019-03-22T00:15:24.728Z,9.63
2019-03-22T00:18:33.199Z,7.70
2019-03-22T00:21:41.483Z,10.27
2019-03-22T00:24:49.827Z,7.63
2019-03-22T00:27:58.216Z,9.43
2019-03-22T00:31:06.301Z,9.20
2019-03-22T00:34:14.732Z,9.93
2019-03-22T00:37:23.382Z,7.47
2019-03-22T00:40:32.042Z,6.33
2019-03-22T00:43:40.327Z,9.97
2019-03-22T00:46:48.959Z,8.63
2019-03-22T00:49:57.161Z,6.13
2019-03-22T00:53:05.811Z,11.23
2019-03-22T00:56:14.311Z,6.87
2019-03-22T00:59:22.523Z,8.07
2019-03-22T01:02:30.655Z,7.70
2019-03-22T01:05:39.055Z,10.93
2019-03-22T01:08:47.445Z,9.60
2019-03-22T01:11:55.832Z,10.57
2019-03-22T01:15:05.528Z,9.33
2019-03-22T01:18:14.071Z,9.33
2019-03-22T01:24:31.069Z,9.73
2019-03-22T01:27:41.104Z,12.57
2019-03-22T01:30:49.783Z,7.80
2019-03-22T01:33:58.491Z,8.10
2019-03-22T01:37:07.003Z,10.63
2019-03-22T01:40:15.887Z,9.93
2019-03-22T01:43:24.247Z,8.17
2019-03-22T01:46:32.424Z,8.77
2019-03-22T01:49:40.607Z,6.67
2019-03-22T01:52:49.098Z,9.37
2019-03-22T01:55:57.611Z,7.60
2019-03-22T01:59:05.972Z,9.63
2019-03-22T02:02:14.066Z,8.30
2019-03-22T02:05:22.560Z,8.67
2019-03-22T02:08:30.985Z,8.40
2019-03-22T02:11:39.250Z,11.33
2019-03-22T02:14:47.719Z,7.87
2019-03-22T02:17:56.665Z,9.07
2019-03-22T02:21:05.090Z,9.50
2019-03-22T02:24:13.595Z,10.57
2019-03-22T02:27:21.950Z,7.93
2019-03-22T02:30:30.070Z,9.23
2019-03-22T02:33:38.275Z,10.67
2019-03-22T02:36:46.347Z,7.37
2019-03-22T02:39:54.847Z,8.87
2019-03-22T02:43:03.217Z,7.70
2019-03-22T02:46:11.551Z,10.10
2019-03-22T02:49:20.025Z,9.87
2019-03-22T02:52:28.196Z,9.83
2019-03-22T02:55:36.304Z,10.47
2019-03-22T02:58:44.465Z,7.47
2019-03-22T03:01:52.873Z,8.97
2019-03-22T03:05:01.072Z,8.83
2019-03-22T03:08:09.303Z,7.73
2019-03-22T03:11:17.607Z,7.13
2019-03-22T03:14:25.935Z,11.53
2019-03-22T03:17:34.327Z,8.27
2019-03-22T03:20:42.398Z,9.87
2019-03-22T03:23:50.579Z,10.30
2019-03-22T03:26:59.730Z,7.93
2019-03-22T03:30:10.259Z,12.30
2019-03-22T03:33:18.485Z,9.93
2019-03-22T03:36:26.927Z,7.93
2019-03-22T03:39:35.101Z,9.33
2019-03-22T03:42:43.397Z,8.70
2019-03-22T03:45:51.806Z,7.07
2019-03-22T03:48:59.914Z,7.90
2019-03-22T03:52:08.244Z,9.17
2019-03-22T03:55:16.435Z,7.23
2019-03-22T03:58:24.698Z,8.63
2019-03-22T04:01:33.333Z,10.30
2019-03-22T04:04:41.720Z,7.70
2019-03-22T04:07:49.909Z,8.30
2019-03-22T04:10:58.219Z,10.33
2019-03-22T04:14:06.609Z,9.37
2019-03-22T04:17:14.682Z,10.70
2019-03-22T04:20:22.760Z,10.23
2019-03-22T04:23:31.209Z,9.53
2019-03-22T04:26:39.516Z,11.63
2019-03-22T04:29:47.849Z,8.73
2019-03-22T04:32:56.210Z,14.93
2019-03-22T04:36:04.580Z,7.07
2019-03-22T04:39:19.573Z,8.00
2019-03-22T04:42:28.308Z,10.07
2019-03-22T04:45:38.984Z,9.33
2019-03-22T04:48:49.542Z,8.13
2019-03-22T04:51:58.060Z,13.63
2019-03-22T04:55:06.658Z,8.60
2019-03-22T04:58:17.501Z,9.93
2019-03-22T05:01:28.725Z,12.60
2019-03-22T05:04:40.512Z,8.90
2019-03-22T05:07:51.294Z,12.63
2019-03-22T05:11:02.871Z,8.70
2019-03-22T05:14:16.090Z,10.10
2019-03-22T05:17:25.861Z,10.07
2019-03-22T05:20:37.430Z,7.83
2019-03-22T05:23:50.118Z,8.97
2019-03-22T05:27:00.491Z,9.47
2019-03-22T05:30:21.025Z,9.00
2019-03-22T05:33:34.270Z,10.63
2019-03-22T05:36:42.654Z,11.80
2019-03-22T05:39:52.094Z,9.97
2019-03-22T05:43:00.429Z,7.03
2019-03-22T05:46:08.758Z,8.93
2019-03-22T05:49:16.845Z,9.47
2019-03-22T05:52:25.110Z,11.37
2019-03-22T05:55:33.737Z,8.53
2019-03-22T05:58:42.091Z,7.73
2019-03-22T06:01:50.192Z,8.90
2019-03-22T06:04:58.184Z,8.57
2019-03-22T06:08:06.530Z,10.17
2019-03-22T06:11:15.012Z,9.90
2019-03-22T06:14:24.705Z,11.47
2019-03-22T06:17:33.217Z,9.40
2019-03-22T06:20:42.337Z,11.13
2019-03-22T06:23:50.331Z,13.17
2019-03-22T06:26:58.778Z,14.90
2019-03-22T06:30:08.089Z,8.50
2019-03-22T06:33:16.428Z,7.47
2019-03-22T06:36:24.550Z,9.07
2019-03-22T06:39:32.727Z,8.13
2019-03-22T06:42:41.069Z,7.10
2019-03-22T06:45:49.367Z,7.83
2019-03-22T06:48:57.342Z,7.07
2019-03-22T06:52:05.731Z,8.33
2019-03-22T06:55:14.203Z,7.93
2019-03-22T06:58:24.239Z,7.27
2019-03-22T07:01:32.761Z,6.67
2019-03-22T07:04:40.926Z,7.77
2019-03-22T07:07:49.176Z,9.10
2019-03-22T07:10:57.197Z,9.07
2019-03-22T07:14:05.439Z,11.13
2019-03-22T07:17:13.619Z,6.77
2019-03-22T07:20:21.891Z,8.57
2019-03-22T07:23:30.057Z,5.63
2019-03-22T07:26:38.917Z,6.20
2019-03-22T07:29:47.242Z,8.03
2019-03-22T07:32:55.287Z,6.67
2019-03-22T07:36:04.001Z,7.17
2019-03-22T07:39:12.652Z,8.33
2019-03-22T07:42:21.653Z,8.93
2019-03-22T07:45:30.159Z,8.47
2019-03-22T07:48:38.660Z,6.37
2019-03-22T07:51:46.805Z,8.07
2019-03-22T07:54:55.238Z,10.13
2019-03-22T07:58:03.812Z,7.07
2019-03-22T08:01:12.295Z,4.80
2019-03-22T08:04:20.315Z,5.40
2019-03-22T08:07:28.420Z,6.60
2019-03-22T08:10:37.586Z,14.47
2019-03-22T08:13:45.929Z,9.87
2019-03-22T08:16:54.238Z,6.93
2019-03-22T08:20:03.254Z,4.80
2019-03-22T08:23:20.270Z,4.53
2019-03-22T08:26:28.264Z,4.10
2019-03-22T08:29:36.711Z,4.57
2019-03-22T08:32:44.843Z,3.83
2019-03-22T08:35:53.324Z,4.63
2019-03-22T08:39:01.860Z,5.40
2019-03-22T08:42:10.163Z,5.50
2019-03-22T08:45:18.443Z,5.23
2019-03-22T08:48:26.517Z,3.33
2019-03-22T08:51:34.623Z,3.53
2019-03-22T08:54:43.523Z,3.37
2019-03-22T08:57:51.807Z,6.37
2019-03-22T09:01:00.562Z,3.07
2019-03-22T09:04:09.221Z,5.00
2019-03-22T09:07:17.616Z,4.20
2019-03-22T09:10:25.801Z,4.67
2019-03-22T09:13:33.886Z,3.80
2019-03-22T09:16:41.869Z,4.87
2019-03-22T09:19:51.250Z,3.43
2019-03-22T09:22:59.720Z,6.07
2019-03-22T09:26:08.027Z,4.80
2019-03-22T09:29:16.217Z,4.30
2019-03-22T09:32:25.671Z,3.70
2019-03-22T09:35:34.224Z,4.90
2019-03-22T09:38:42.749Z,5.77
2019-03-22T09:41:51.283Z,4.00
2019-03-22T09:44:59.582Z,3.70
2019-03-22T09:48:08.266Z,5.27
2019-03-22T09:51:16.510Z,3.80
2019-03-22T09:54:24.853Z,3.97
2019-03-22T09:57:33.154Z,3.87
2019-03-22T10:00:41.238Z,3.47
2019-03-22T10:03:49.646Z,4.23
2019-03-22T10:06:58.789Z,3.87
2019-03-22T10:10:07.517Z,4.03
2019-03-22T10:13:15.595Z,6.10
2019-03-22T10:16:23.675Z,3.40
2019-03-22T10:19:32.712Z,9.47
2019-03-22T10:22:41.055Z,3.97
2019-03-22T10:25:49.352Z,5.50
2019-03-22T10:28:58.071Z,4.33
2019-03-22T10:32:06.340Z,5.77
2019-03-22T10:35:25.314Z,4.53
2019-03-22T10:38:31.787Z,3.20
2019-03-22T10:41:34.887Z,4.17
2019-03-22T10:44:43.071Z,3.40
2019-03-22T10:47:51.239Z,2.73
2019-03-22T10:50:59.791Z,5.47
2019-03-22T10:54:08.484Z,4.43
2019-03-22T10:57:16.847Z,5.33
2019-03-22T11:00:25.229Z,3.40
2019-03-22T11:03:33.450Z,3.53
2019-03-22T11:06:41.902Z,4.57
2019-03-22T11:09:50.506Z,4.50
2019-03-22T11:12:58.598Z,3.67
2019-03-22T11:16:06.824Z,6.17
2019-03-22T11:19:15.226Z,4.77
2019-03-22T11:22:23.422Z,3.93
2019-03-22T11:25:31.974Z,3.80
2019-03-22T11:28:40.278Z,4.23
2019-03-22T11:31:48.413Z,4.13
2019-03-22T11:34:56.879Z,5.37
2019-03-22T11:38:05.133Z,4.63
2019-03-22T11:41:13.570Z,4.53
2019-03-22T11:44:22.076Z,5.60
2019-03-22T11:47:30.595Z,6.87
2019-03-22T11:50:38.789Z,6.87
2019-03-22T11:53:46.961Z,6.33
2019-03-22T11:56:55.288Z,8.37
2019-03-22T12:00:08.103Z,9.20
2019-03-22T12:03:16.207Z,9.60
2019-03-22T12:06:24.386Z,7.90
2019-03-22T12:09:32.397Z,11.10
2019-03-22T12:12:40.843Z,9.10
2019-03-22T12:15:49.149Z,9.07
2019-03-22T12:18:57.423Z,6.57
2019-03-22T12:22:05.545Z,7.10
2019-03-22T12:25:15.271Z,7.67
2019-03-22T12:28:23.460Z,7.57
2019-03-22T12:31:32.028Z,10.47
2019-03-22T12:34:40.554Z,6.90
2019-03-22T12:37:49.194Z,6.57
2019-03-22T12:40:57.332Z,7.53
2019-03-22T12:44:06.516Z,5.67
2019-03-22T12:47:15.281Z,5.90
2019-03-22T12:50:24.142Z,6.17
2019-03-22T12:53:32.574Z,7.00
2019-03-22T12:56:41.600Z,10.67
2019-03-22T12:59:50.159Z,5.80
2019-03-22T13:02:58.755Z,9.07
2019-03-22T13:06:07.063Z,7.30
2019-03-22T13:09:15.316Z,8.97
2019-03-22T13:12:23.647Z,5.73
2019-03-22T13:15:32.023Z,5.37
2019-03-22T13:18:49.635Z,6.27
2019-03-22T13:24:59.679Z,6.93
2019-03-22T13:28:08.148Z,7.63
2019-03-22T13:31:16.742Z,6.70
2019-03-22T13:34:25.243Z,9.17
2019-03-22T13:37:33.972Z,6.33
2019-03-22T13:40:42.525Z,10.10
2019-03-22T13:43:54.506Z,6.57
2019-03-22T13:47:03.903Z,8.27
2019-03-22T13:50:13.098Z,6.87
2019-03-22T13:53:21.877Z,9.63
2019-03-22T13:56:32.736Z,9.50
2019-03-22T13:59:41.228Z,13.13
2019-03-22T14:02:50.191Z,11.40
2019-03-22T14:05:59.580Z,9.10
2019-03-22T14:09:08.663Z,8.57
2019-03-22T14:12:18.625Z,9.13
2019-03-22T14:15:27.144Z,8.70
2019-03-22T14:18:35.809Z,8.77
2019-03-22T14:21:44.626Z,9.43
2019-03-22T14:24:53.985Z,9.10
2019-03-22T14:28:03.141Z,8.10
2019-03-22T14:31:11.838Z,8.63
2019-03-22T14:34:21.138Z,13.37
2019-03-22T14:37:29.904Z,8.30
2019-03-22T14:40:39.149Z,10.60
2019-03-22T14:43:47.457Z,14.10
2019-03-22T14:46:56.564Z,12.50
2019-03-22T14:50:05.515Z,12.27
2019-03-22T14:53:14.134Z,11.03
2019-03-22T14:56:22.801Z,8.80
2019-03-22T14:59:31.265Z,9.43
2019-03-22T15:02:40.007Z,11.90
2019-03-22T15:05:48.411Z,13.47
2019-03-22T15:08:58.174Z,9.93
2019-03-22T15:12:06.822Z,8.87
2019-03-22T15:15:33.269Z,8.93
2019-03-22T15:18:55.193Z,9.17
2019-03-22T15:22:17.789Z,10.00
2019-03-22T15:25:44.415Z,8.43
2019-03-22T15:29:28.728Z,8.77
2019-03-22T15:32:48.932Z,8.07
2019-03-22T15:36:25.063Z,11.23
2019-03-22T15:39:51.710Z,9.73
2019-03-22T15:43:00.661Z,10.07
2019-03-22T15:46:09.407Z,11.03
2019-03-22T15:49:18.102Z,10.17
2019-03-22T15:52:26.800Z,7.80
2019-03-22T15:55:35.389Z,10.87
2019-03-22T15:58:43.852Z,10.07
2019-03-22T16:01:53.143Z,10.73
2019-03-22T16:05:01.861Z,13.50
2019-03-22T16:08:10.542Z,8.33
2019-03-22T16:11:19.069Z,8.93
2019-03-22T16:14:27.776Z,9.40
2019-03-22T16:17:36.107Z,10.07
2019-03-22T16:20:45.359Z,8.73
2019-03-22T16:23:54.203Z,8.37
2019-03-22T16:27:02.970Z,8.53
2019-03-22T16:30:12.786Z,9.50
2019-03-22T16:33:20.986Z,12.67
2019-03-22T16:36:29.783Z,9.43
2019-03-22T16:39:38.338Z,15.20
2019-03-22T16:42:46.752Z,18.13
2019-03-22T16:45:55.065Z,20.57
2019-03-22T16:49:03.500Z,13.10
2019-03-22T16:52:12.091Z,11.67
2019-03-22T16:55:20.616Z,11.27
2019-03-22T16:58:29.322Z,10.73
2019-03-22T17:01:37.611Z,14.80
2019-03-22T17:04:45.727Z,10.87
2019-03-22T17:07:54.291Z,10.27
2019-03-22T17:11:03.156Z,9.97
2019-03-22T17:14:11.624Z,16.93
2019-03-22T17:17:20.034Z,13.33
2019-03-22T17:20:28.499Z,16.20
2019-03-22T17:23:37.385Z,14.90
2019-03-22T17:26:45.636Z,17.17
2019-03-22T17:29:54.386Z,15.27
2019-03-22T17:33:02.887Z,12.30
2019-03-22T17:36:11.085Z,11.70
2019-03-22T17:39:19.692Z,13.30
2019-03-22T17:42:28.318Z,9.37
2019-03-22T17:45:37.121Z,12.07
2019-03-22T17:48:45.325Z,13.93
2019-03-22T17:51:53.763Z,13.90
2019-03-22T17:55:02.464Z,11.83
2019-03-22T17:58:11.838Z,15.37
2019-03-22T18:01:20.272Z,10.83
2019-03-22T18:04:28.496Z,14.03
2019-03-22T18:07:37.103Z,13.00
2019-03-22T18:10:45.396Z,14.17
2019-03-22T18:13:53.697Z,18.40
2019-03-22T18:17:02.004Z,17.60
2019-03-22T18:20:11.019Z,13.47
2019-03-22T18:23:19.289Z,20.23
2019-03-22T18:26:27.492Z,18.03
2019-03-22T18:29:35.691Z,17.33
2019-03-22T18:32:44.117Z,16.10
2019-03-22T18:35:52.752Z,16.07
2019-03-22T18:39:00.847Z,14.67
2019-03-22T18:42:08.953Z,12.53
2019-03-22T18:45:17.293Z,10.73
2019-03-22T18:48:25.873Z,14.17
2019-03-22T18:51:34.102Z,13.20
2019-03-22T18:54:42.579Z,12.87
2019-03-22T18:57:50.755Z,16.23
2019-03-22T19:01:00.014Z,13.60
2019-03-22T19:04:08.876Z,12.57
2019-03-22T19:07:17.327Z,12.47
2019-03-22T19:10:26.662Z,11.47
2019-03-22T19:13:36.008Z,13.07
2019-03-22T19:16:44.319Z,12.20
2019-03-22T19:19:52.752Z,11.47
2019-03-22T19:26:10.092Z,13.40
2019-03-22T19:29:18.517Z,16.63
2019-03-22T19:32:27.564Z,19.37
2019-03-22T19:35:36.815Z,10.80
2019-03-22T19:38:45.632Z,15.80
2019-03-22T19:41:53.929Z,16.53
2019-03-22T19:45:03.389Z,16.63
2019-03-22T19:48:11.759Z,17.67
2019-03-22T19:51:21.071Z,11.43
2019-03-22T19:54:29.508Z,8.80
2019-03-22T19:57:38.094Z,11.23
2019-03-22T20:00:46.608Z,12.63
2019-03-22T20:03:55.038Z,11.77
2019-03-22T20:07:03.433Z,12.23
2019-03-22T20:10:14.087Z,12.80
2019-03-22T20:13:23.641Z,12.63
2019-03-22T20:16:33.196Z,13.17
2019-03-22T20:19:42.071Z,13.27
2019-03-22T20:22:52.303Z,13.50
2019-03-22T20:26:00.657Z,11.17
2019-03-22T20:29:09.562Z,13.13
2019-03-22T20:32:18.078Z,14.27
2019-03-22T20:35:26.382Z,14.70
2019-03-22T20:38:34.626Z,12.47
2019-03-22T20:41:43.329Z,14.13
2019-03-22T20:44:51.739Z,12.30
2019-03-22T20:48:00.595Z,15.17
2019-03-22T20:51:09.373Z,14.43
2019-03-22T20:54:18.382Z,14.43
2019-03-22T20:57:27.358Z,14.57
2019-03-22T21:00:36.384Z,14.33
2019-03-22T21:03:46.015Z,15.13
2019-03-22T21:06:54.866Z,16.37
2019-03-22T21:10:03.860Z,15.20
2019-03-22T21:13:14.420Z,13.97
2019-03-22T21:16:23.163Z,13.23
2019-03-22T21:19:32.101Z,13.53
2019-03-22T21:22:40.812Z,15.77
2019-03-22T21:25:49.209Z,19.63
2019-03-22T21:28:58.765Z,14.90
2019-03-22T21:32:06.989Z,14.60
2019-03-22T21:35:22.426Z,13.93
2019-03-22T21:38:26.139Z,15.37
2019-03-22T21:41:34.791Z,15.60
2019-03-22T21:44:43.724Z,15.00
2019-03-22T21:47:53.163Z,14.20
2019-03-22T21:51:01.834Z,15.27
2019-03-22T21:54:11.106Z,13.97
2019-03-22T21:57:19.746Z,16.33
2019-03-22T22:00:28.036Z,12.43
2019-03-22T22:03:36.874Z,13.43
2019-03-22T22:06:45.058Z,15.00
2019-03-22T22:09:54.370Z,15.20
2019-03-22T22:13:02.866Z,11.90
2019-03-22T22:16:12.107Z,11.20
2019-03-22T22:19:21.620Z,13.43
2019-03-22T22:22:30.276Z,14.47
2019-03-22T22:25:38.763Z,12.67
2019-03-22T22:28:48.010Z,13.60
2019-03-22T22:31:56.326Z,13.20
2019-03-22T22:35:06.280Z,13.73
2019-03-22T22:38:14.870Z,13.20
2019-03-22T22:41:23.295Z,13.57
2019-03-22T22:44:31.716Z,12.10
2019-03-22T22:47:40.656Z,11.03
2019-03-22T22:50:48.913Z,12.00
2019-03-22T22:53:57.273Z,11.23
2019-03-22T22:57:05.661Z,11.23
2019-03-22T23:00:15.487Z,12.30
2019-03-22T23:03:24.500Z,10.67
2019-03-22T23:06:33.349Z,10.60
2019-03-22T23:09:41.968Z,11.23
2019-03-22T23:12:51.200Z,10.97
2019-03-22T23:15:59.776Z,12.37
2019-03-22T23:19:08.080Z,13.93
2019-03-22T23:22:16.562Z,11.83
2019-03-22T23:25:25.613Z,11.70
2019-03-22T23:28:34.693Z,12.60
2019-03-22T23:31:42.958Z,11.00
2019-03-22T23:34:59.091Z,11.57
2019-03-22T23:38:02.124Z,12.33
2019-03-22T23:41:11.255Z,13.43
2019-03-22T23:44:19.353Z,12.20
2019-03-22T23:47:27.436Z,11.67
2019-03-22T23:50:36.218Z,10.67
2019-03-22T23:53:45.041Z,12.73
2019-03-22T23:56:53.576Z,13.00
